createdAt,value
2023-04-04T00:02:08.295Z,9.00
2023-04-04T00:04:35.515Z,3.80
2023-04-04T00:07:02.693Z,5.97
2023-04-04T00:09:30.509Z,4.03
2023-04-04T00:11:57.891Z,3.40
2023-04-04T00:14:25.381Z,4.60
2023-04-04T00:16:52.557Z,5.03
2023-04-04T00:19:19.808Z,4.43
2023-04-04T00:21:47.641Z,4.50
2023-04-04T00:24:16.079Z,3.33
2023-04-04T00:26:43.327Z,4.07
2023-04-04T00:29:10.547Z,3.60
2023-04-04T00:31:37.808Z,5.20
2023-04-04T00:34:04.982Z,3.00
2023-04-04T00:36:32.271Z,3.70
2023-04-04T00:38:59.443Z,2.77
2023-04-04T00:41:27.347Z,3.50
2023-04-04T00:43:55.677Z,3.00
2023-04-04T00:46:25.067Z,5.17
2023-04-04T00:48:54.362Z,4.57
2023-04-04T00:51:21.793Z,4.33
2023-04-04T00:53:51.337Z,3.83
2023-04-04T00:56:19.354Z,4.80
2023-04-04T00:58:47.708Z,4.17
2023-04-04T01:01:15.081Z,4.73
2023-04-04T01:03:42.474Z,3.43
2023-04-04T01:06:09.905Z,2.77
2023-04-04T01:08:40.630Z,3.63
2023-04-04T01:11:09.471Z,4.17
2023-04-04T01:13:36.913Z,4.70
2023-04-04T01:16:04.944Z,3.73
2023-04-04T01:18:33.637Z,4.30
2023-04-04T01:21:13.208Z,4.17
2023-04-04T01:23:59.092Z,4.93
2023-04-04T01:26:31.078Z,4.70
2023-04-04T01:29:01.703Z,3.63
2023-04-04T01:31:41.823Z,4.53
2023-04-04T01:34:48.336Z,3.83
2023-04-04T01:37:36.118Z,5.93
2023-04-04T01:40:11.427Z,5.33
2023-04-04T01:42:40.055Z,4.00
2023-04-04T01:45:08.082Z,4.30
2023-04-04T01:47:43.330Z,3.20
2023-04-04T01:50:16.632Z,5.30
2023-04-04T01:52:44.390Z,3.73
2023-04-04T01:55:11.550Z,6.13
2023-04-04T01:57:39.109Z,4.67
2023-04-04T02:00:07.932Z,7.07
2023-04-04T02:02:43.331Z,7.83
2023-04-04T02:05:11.929Z,4.77
2023-04-04T02:07:39.263Z,4.10
2023-04-04T02:10:14.639Z,3.93
2023-04-04T02:12:41.823Z,5.50
2023-04-04T02:15:09.497Z,3.97
2023-04-04T02:17:37.097Z,3.47
2023-04-04T02:20:04.982Z,3.23
2023-04-04T02:22:33.421Z,5.37
2023-04-04T02:25:02.708Z,3.93
2023-04-04T02:27:30.023Z,4.07
2023-04-04T02:29:57.230Z,4.63
2023-04-04T02:32:24.582Z,4.90
2023-04-04T02:34:52.796Z,3.20
2023-04-04T02:37:20.302Z,4.90
2023-04-04T02:39:51.101Z,5.40
2023-04-04T02:42:18.524Z,3.80
2023-04-04T02:44:46.061Z,3.47
2023-04-04T02:47:17.072Z,3.23
2023-04-04T02:49:45.538Z,3.60
2023-04-04T02:52:13.933Z,4.87
2023-04-04T02:54:46.231Z,4.67
2023-04-04T02:57:23.108Z,4.90
2023-04-04T02:59:50.297Z,5.37
2023-04-04T03:02:17.586Z,5.73
2023-04-04T03:04:44.957Z,4.50
2023-04-04T03:07:12.576Z,6.47
2023-04-04T03:09:41.889Z,4.77
2023-04-04T03:12:09.350Z,4.33
2023-04-04T03:14:36.626Z,5.57
2023-04-04T03:17:04.732Z,3.67
2023-04-04T03:19:32.115Z,5.37
2023-04-04T03:21:59.291Z,5.50
2023-04-04T03:24:26.564Z,6.50
2023-04-04T03:26:53.995Z,3.80
2023-04-04T03:29:21.645Z,3.87
2023-04-04T03:31:48.873Z,3.43
2023-04-04T03:34:16.087Z,5.17
2023-04-04T03:36:43.270Z,4.77
2023-04-04T03:39:10.508Z,3.87
2023-04-04T03:41:37.754Z,3.47
2023-04-04T03:44:05.549Z,6.47
2023-04-04T03:46:34.792Z,4.47
2023-04-04T03:49:04.010Z,3.77
2023-04-04T03:51:32.736Z,5.27
2023-04-04T03:53:59.943Z,6.60
2023-04-04T03:56:27.360Z,5.67
2023-04-04T03:58:56.609Z,6.00
2023-04-04T04:01:24.138Z,5.73
2023-04-04T04:03:51.397Z,5.13
2023-04-04T04:06:18.566Z,6.10
2023-04-04T04:08:46.862Z,4.90
2023-04-04T04:11:14.073Z,4.43
2023-04-04T04:13:41.554Z,6.27
2023-04-04T04:16:08.854Z,3.13
2023-04-04T04:18:37.580Z,3.50
2023-04-04T04:21:10.325Z,4.97
2023-04-04T04:23:37.798Z,8.17
2023-04-04T04:26:05.317Z,4.77
2023-04-04T04:28:34.506Z,5.60
2023-04-04T04:31:10.519Z,3.80
2023-04-04T04:33:48.637Z,5.90
2023-04-04T04:36:18.218Z,6.90
2023-04-04T04:39:02.787Z,4.47
2023-04-04T04:41:34.118Z,5.33
2023-04-04T04:44:03.425Z,4.67
2023-04-04T04:46:31.617Z,6.27
2023-04-04T04:49:00.234Z,5.93
2023-04-04T04:51:30.600Z,5.40
2023-04-04T04:53:59.380Z,6.13
2023-04-04T04:56:28.126Z,6.70
2023-04-04T04:59:00.384Z,7.57
2023-04-04T05:01:28.813Z,4.63
2023-04-04T05:03:59.148Z,6.83
2023-04-04T05:06:38.105Z,5.43
2023-04-04T05:09:07.579Z,5.07
2023-04-04T05:11:38.033Z,4.33
2023-04-04T05:14:07.186Z,5.20
2023-04-04T05:16:40.244Z,5.33
2023-04-04T05:19:07.499Z,6.17
2023-04-04T05:21:42.313Z,5.30
2023-04-04T05:24:17.115Z,6.70
2023-04-04T05:26:44.343Z,5.17
2023-04-04T05:29:12.070Z,7.53
2023-04-04T05:31:43.799Z,6.10
2023-04-04T05:34:17.642Z,6.10
2023-04-04T05:36:44.909Z,7.27
2023-04-04T05:39:12.196Z,6.17
2023-04-04T05:41:48.366Z,5.83
2023-04-04T05:44:18.105Z,7.00
2023-04-04T05:46:45.554Z,6.70
2023-04-04T05:49:13.285Z,7.10
2023-04-04T05:51:48.308Z,5.20
2023-04-04T05:54:17.102Z,4.10
2023-04-04T05:56:45.810Z,5.83
2023-04-04T05:59:38.839Z,6.43
2023-04-04T06:02:09.103Z,5.23
2023-04-04T06:04:41.034Z,6.27
2023-04-04T06:07:09.693Z,5.37
2023-04-04T06:09:36.901Z,6.37
2023-04-04T06:12:04.659Z,7.10
2023-04-04T06:14:33.000Z,6.40
2023-04-04T06:17:04.197Z,4.67
2023-04-04T06:19:31.430Z,4.70
2023-04-04T06:21:58.906Z,5.97
2023-04-04T06:24:27.210Z,5.07
2023-04-04T06:26:54.468Z,4.67
2023-04-04T06:29:26.209Z,5.40
2023-04-04T06:31:55.414Z,5.27
2023-04-04T06:34:34.166Z,4.73
2023-04-04T06:37:02.155Z,5.77
2023-04-04T06:39:34.929Z,7.10
2023-04-04T06:42:06.614Z,5.97
2023-04-04T06:44:35.801Z,4.10
2023-04-04T06:47:03.110Z,6.00
2023-04-04T06:49:30.368Z,6.27
2023-04-04T06:51:58.656Z,4.83
2023-04-04T06:54:26.085Z,5.17
2023-04-04T06:56:53.961Z,7.47
2023-04-04T06:59:21.145Z,4.13
2023-04-04T07:01:48.617Z,6.27
2023-04-04T07:04:19.444Z,6.37
2023-04-04T07:06:46.750Z,9.27
2023-04-04T07:09:25.915Z,5.93
2023-04-04T07:11:56.312Z,4.97
2023-04-04T07:14:25.884Z,4.87
2023-04-04T07:16:53.642Z,6.40
2023-04-04T07:19:24.098Z,4.87
2023-04-04T07:21:51.608Z,5.07
2023-04-04T07:24:18.818Z,12.77
2023-04-04T07:26:46.039Z,8.77
2023-04-04T07:29:13.846Z,5.53
2023-04-04T07:31:41.063Z,5.03
2023-04-04T07:34:08.455Z,5.80
2023-04-04T07:36:35.631Z,4.97
2023-04-04T07:39:03.013Z,5.43
2023-04-04T07:41:30.406Z,5.77
2023-04-04T07:43:57.562Z,4.63
2023-04-04T07:46:24.853Z,5.47
2023-04-04T07:48:52.009Z,8.73
2023-04-04T07:51:28.384Z,5.00
2023-04-04T07:53:55.937Z,5.53
2023-04-04T07:56:23.450Z,4.57
2023-04-04T07:58:50.733Z,3.77
2023-04-04T08:01:17.949Z,4.10
2023-04-04T08:03:45.570Z,6.00
2023-04-04T08:06:13.210Z,4.47
2023-04-04T08:08:41.176Z,5.37
2023-04-04T08:11:08.378Z,5.03
2023-04-04T08:13:35.621Z,9.47
2023-04-04T08:16:02.838Z,5.23
2023-04-04T08:18:30.006Z,6.03
2023-04-04T08:20:57.176Z,4.60
2023-04-04T08:23:24.517Z,6.67
2023-04-04T08:25:52.202Z,5.63
2023-04-04T08:28:19.364Z,7.13
2023-04-04T08:30:47.131Z,5.17
2023-04-04T08:33:14.312Z,6.20
2023-04-04T08:35:41.743Z,4.93
2023-04-04T08:38:08.988Z,5.83
2023-04-04T08:40:38.388Z,6.17
2023-04-04T08:43:06.581Z,5.03
2023-04-04T08:45:35.878Z,5.50
2023-04-04T08:48:04.870Z,6.70
2023-04-04T08:50:33.529Z,4.37
2023-04-04T08:53:03.052Z,6.23
2023-04-04T08:55:30.797Z,5.70
2023-04-04T08:57:58.200Z,8.27
2023-04-04T09:00:25.428Z,6.37
2023-04-04T09:03:06.625Z,4.23
2023-04-04T09:05:34.526Z,4.73
2023-04-04T09:08:04.876Z,4.57
2023-04-04T09:10:32.144Z,4.90
2023-04-04T09:13:12.620Z,4.20
2023-04-04T09:15:50.843Z,5.10
2023-04-04T09:18:18.884Z,4.67
2023-04-04T09:20:47.422Z,4.87
2023-04-04T09:23:20.636Z,4.70
2023-04-04T09:28:24.136Z,5.17
2023-04-04T09:30:52.418Z,6.37
2023-04-04T09:33:21.990Z,6.63
2023-04-04T09:36:04.843Z,4.50
2023-04-04T09:38:32.229Z,4.20
2023-04-04T09:40:59.627Z,4.67
2023-04-04T09:43:30.544Z,4.43
2023-04-04T09:45:58.230Z,5.63
2023-04-04T09:48:36.690Z,3.80
2023-04-04T09:51:11.983Z,4.83
2023-04-04T09:53:41.887Z,4.63
2023-04-04T09:56:09.286Z,3.57
2023-04-04T09:58:42.302Z,5.50
2023-04-04T10:01:18.132Z,3.90
2023-04-04T10:03:52.555Z,6.43
2023-04-04T10:06:21.340Z,4.83
2023-04-04T10:08:48.956Z,4.10
2023-04-04T10:11:30.681Z,4.47
2023-04-04T10:13:59.022Z,5.57
2023-04-04T10:16:26.889Z,4.10
2023-04-04T10:18:54.483Z,3.67
2023-04-04T10:21:22.609Z,5.40
2023-04-04T10:23:50.892Z,7.00
2023-04-04T10:26:18.087Z,5.03
2023-04-04T10:28:45.448Z,4.60
2023-04-04T10:31:26.047Z,6.80
2023-04-04T10:34:12.297Z,4.10
2023-04-04T10:36:49.946Z,4.90
2023-04-04T10:39:32.578Z,5.03
2023-04-04T10:42:01.473Z,5.80
2023-04-04T10:44:39.517Z,4.50
2023-04-04T10:47:21.898Z,3.83
2023-04-04T10:49:51.002Z,4.47
2023-04-04T10:52:23.480Z,4.53
2023-04-04T10:54:56.217Z,4.27
2023-04-04T10:57:24.069Z,4.37
2023-04-04T11:00:06.421Z,5.10
2023-04-04T11:02:45.101Z,4.90
2023-04-04T11:05:27.839Z,3.80
2023-04-04T11:08:07.692Z,6.07
2023-04-04T11:10:38.153Z,5.13
2023-04-04T11:13:39.728Z,4.20
2023-04-04T11:16:15.271Z,4.47
2023-04-04T11:18:43.123Z,5.07
2023-04-04T11:21:14.125Z,5.43
2023-04-04T11:23:59.370Z,7.03
2023-04-04T11:26:27.486Z,4.47
2023-04-04T11:29:02.184Z,5.60
2023-04-04T11:31:33.520Z,5.70
2023-04-04T11:34:08.694Z,8.60
2023-04-04T11:36:35.956Z,5.27
2023-04-04T11:39:26.042Z,4.10
2023-04-04T11:42:11.330Z,4.30
2023-04-04T11:44:51.744Z,4.60
2023-04-04T11:47:24.157Z,4.20
2023-04-04T11:49:53.689Z,5.77
2023-04-04T11:52:21.408Z,5.00
2023-04-04T11:54:50.105Z,5.03
2023-04-04T11:57:19.469Z,4.20
2023-04-04T11:59:48.523Z,5.00
2023-04-04T12:02:27.442Z,5.70
2023-04-04T12:04:56.059Z,5.23
2023-04-04T12:07:27.240Z,6.60
2023-04-04T12:09:56.382Z,6.57
2023-04-04T12:12:26.307Z,4.83
2023-04-04T12:15:00.251Z,7.20
2023-04-04T12:17:34.602Z,5.40
2023-04-04T12:20:02.091Z,4.57
2023-04-04T12:22:35.213Z,4.80
2023-04-04T12:25:03.477Z,4.40
2023-04-04T12:27:30.730Z,4.20
2023-04-04T12:30:00.511Z,5.27
2023-04-04T12:32:27.899Z,5.73
2023-04-04T12:35:00.911Z,5.13
2023-04-04T12:37:31.116Z,6.03
2023-04-04T12:39:58.511Z,4.63
2023-04-04T12:42:26.250Z,5.87
2023-04-04T12:44:54.250Z,4.23
2023-04-04T12:47:24.461Z,5.23
2023-04-04T12:49:56.422Z,5.60
2023-04-04T12:52:32.400Z,5.47
2023-04-04T12:55:09.235Z,6.43
2023-04-04T12:57:38.650Z,6.57
2023-04-04T13:00:08.357Z,5.73
2023-04-04T13:02:37.252Z,5.40
2023-04-04T13:05:07.125Z,5.07
2023-04-04T13:07:43.152Z,4.47
2023-04-04T13:10:14.593Z,9.60
2023-04-04T13:13:01.479Z,5.37
2023-04-04T13:15:49.131Z,4.40
2023-04-04T13:18:22.037Z,4.73
2023-04-04T13:20:50.687Z,5.77
2023-04-04T13:23:18.790Z,4.33
2023-04-04T13:25:46.481Z,4.83
2023-04-04T13:28:14.264Z,4.23
2023-04-04T13:30:46.636Z,4.20
2023-04-04T13:33:14.458Z,4.37
2023-04-04T13:35:45.785Z,3.90
2023-04-04T13:38:13.582Z,4.20
2023-04-04T13:40:41.083Z,5.87
2023-04-04T13:43:08.739Z,5.60
2023-04-04T13:45:35.991Z,4.57
2023-04-04T13:48:04.122Z,4.87
2023-04-04T13:50:33.043Z,4.40
2023-04-04T13:53:00.466Z,4.17
2023-04-04T13:55:28.031Z,4.40
2023-04-04T13:57:55.448Z,7.50
2023-04-04T14:00:23.683Z,4.77
2023-04-04T14:02:54.180Z,5.53
2023-04-04T14:05:22.979Z,5.40
2023-04-04T14:07:50.717Z,4.43
2023-04-04T14:10:18.004Z,4.43
2023-04-04T14:12:45.490Z,4.70
2023-04-04T14:15:13.189Z,5.73
2023-04-04T14:17:40.903Z,5.60
2023-04-04T14:20:08.799Z,5.07
2023-04-04T14:22:36.216Z,4.43
2023-04-04T14:25:04.857Z,4.03
2023-04-04T14:27:32.038Z,4.70
2023-04-04T14:29:59.220Z,4.27
2023-04-04T14:32:27.179Z,5.67
2023-04-04T14:34:54.338Z,4.40
2023-04-04T14:37:21.882Z,5.63
2023-04-04T14:39:49.114Z,4.73
2023-04-04T14:42:16.321Z,5.20
2023-04-04T14:44:43.531Z,4.80
2023-04-04T14:47:10.734Z,4.40
2023-04-04T14:49:38.011Z,4.53
2023-04-04T14:52:05.381Z,4.20
2023-04-04T14:54:32.575Z,4.40
2023-04-04T14:56:59.803Z,4.67
2023-04-04T14:59:26.959Z,4.30
2023-04-04T15:01:54.197Z,4.90
2023-04-04T15:04:21.511Z,5.87
2023-04-04T15:06:48.712Z,4.83
2023-04-04T15:09:16.336Z,5.43
2023-04-04T15:11:43.542Z,4.40
2023-04-04T15:14:10.782Z,6.30
2023-04-04T15:16:38.344Z,4.50
2023-04-04T15:19:05.757Z,5.43
2023-04-04T15:21:32.939Z,4.80
2023-04-04T15:24:00.375Z,4.67
2023-04-04T15:26:27.536Z,3.97
2023-04-04T15:28:54.741Z,5.77
2023-04-04T15:31:21.954Z,7.60
2023-04-04T15:33:49.176Z,3.50
2023-04-04T15:36:16.485Z,5.37
2023-04-04T15:38:43.806Z,3.77
2023-04-04T15:41:11.318Z,4.27
2023-04-04T15:43:38.622Z,5.07
2023-04-04T15:46:06.299Z,4.10
2023-04-04T15:48:34.417Z,4.97
2023-04-04T15:51:04.911Z,5.23
2023-04-04T15:53:33.217Z,4.67
2023-04-04T15:56:02.050Z,4.47
2023-04-04T15:58:29.361Z,4.63
2023-04-04T16:00:56.709Z,4.83
2023-04-04T16:03:25.561Z,4.03
2023-04-04T16:05:52.881Z,5.63
2023-04-04T16:08:20.223Z,15.83
2023-04-04T16:10:47.416Z,4.83
2023-04-04T16:13:14.596Z,5.87
2023-04-04T16:15:42.371Z,3.87
2023-04-04T16:18:09.705Z,4.20
2023-04-04T16:20:37.088Z,6.33
2023-04-04T16:23:04.258Z,4.07
2023-04-04T16:25:31.465Z,4.53
2023-04-04T16:27:58.619Z,4.93
2023-04-04T16:30:26.021Z,4.70
2023-04-04T16:32:53.346Z,5.27
2023-04-04T16:35:20.727Z,4.00
2023-04-04T16:37:47.922Z,5.17
2023-04-04T16:40:15.527Z,4.43
2023-04-04T16:42:42.922Z,5.80
2023-04-04T16:45:10.908Z,4.97
2023-04-04T16:47:38.316Z,6.90
2023-04-04T16:50:07.106Z,3.80
2023-04-04T16:52:34.353Z,4.13
2023-04-04T16:55:01.604Z,4.67
2023-04-04T16:57:28.753Z,4.53
2023-04-04T16:59:55.902Z,4.83
2023-04-04T17:02:23.069Z,4.93
2023-04-04T17:04:51.140Z,4.97
2023-04-04T17:07:21.002Z,6.27
2023-04-04T17:09:48.832Z,4.60
2023-04-04T17:12:16.239Z,5.33
2023-04-04T17:14:43.849Z,5.57
2023-04-04T17:17:11.392Z,4.07
2023-04-04T17:19:38.767Z,5.97
2023-04-04T17:22:06.084Z,4.37
2023-04-04T17:24:33.256Z,5.53
2023-04-04T17:27:01.808Z,5.17
2023-04-04T17:29:29.150Z,5.93
2023-04-04T17:31:57.666Z,5.67
2023-04-04T17:34:25.749Z,5.37
2023-04-04T17:36:53.828Z,5.87
2023-04-04T17:39:21.797Z,4.97
2023-04-04T17:41:49.720Z,4.40
2023-04-04T17:44:18.014Z,5.03
2023-04-04T17:46:46.087Z,4.17
2023-04-04T17:49:19.599Z,6.17
2023-04-04T17:51:48.768Z,5.30
2023-04-04T17:54:16.142Z,5.20
2023-04-04T17:56:46.711Z,13.60
2023-04-04T17:59:14.875Z,6.27
2023-04-04T18:01:42.270Z,6.90
2023-04-04T18:04:09.852Z,7.13
2023-04-04T18:06:40.165Z,7.13
2023-04-04T18:09:09.956Z,10.73
2023-04-04T18:11:38.456Z,9.27
2023-04-04T18:14:05.754Z,6.10
2023-04-04T18:16:39.099Z,6.50
2023-04-04T18:19:09.359Z,5.43
2023-04-04T18:21:37.969Z,7.00
2023-04-04T18:24:07.769Z,8.57
2023-04-04T18:26:34.941Z,6.17
2023-04-04T18:29:02.144Z,5.80
2023-04-04T18:31:29.359Z,6.37
2023-04-04T18:33:56.813Z,6.00
2023-04-04T18:36:24.066Z,6.20
2023-04-04T18:38:51.779Z,8.03
2023-04-04T18:41:20.291Z,6.93
2023-04-04T18:43:47.575Z,8.80
2023-04-04T18:46:15.965Z,7.37
2023-04-04T18:49:08.853Z,5.83
2023-04-04T18:51:36.104Z,8.97
2023-04-04T18:54:04.297Z,7.33
2023-04-04T18:56:31.441Z,7.00
2023-04-04T18:58:58.715Z,9.07
2023-04-04T19:01:26.385Z,8.40
2023-04-04T19:03:55.260Z,10.00
2023-04-04T19:06:26.706Z,9.80
2023-04-04T19:08:58.373Z,10.43
2023-04-04T19:11:25.713Z,11.33
2023-04-04T19:13:52.959Z,9.93
2023-04-04T19:16:20.121Z,10.30
2023-04-04T19:18:47.307Z,11.73
2023-04-04T19:21:14.485Z,11.50
2023-04-04T19:23:42.195Z,11.00
2023-04-04T19:26:09.441Z,9.87
2023-04-04T19:28:36.725Z,8.57
2023-04-04T19:31:08.698Z,8.80
2023-04-04T19:33:36.913Z,8.87
2023-04-04T19:36:11.286Z,7.13
2023-04-04T19:38:42.683Z,9.33
2023-04-04T19:41:32.602Z,8.47
2023-04-04T19:44:00.342Z,8.97
2023-04-04T19:46:32.994Z,8.67
2023-04-04T19:49:02.992Z,7.33
2023-04-04T19:51:36.251Z,10.93
2023-04-04T19:54:08.178Z,8.73
2023-04-04T19:56:36.141Z,9.33
2023-04-04T19:59:07.477Z,6.80
2023-04-04T20:01:39.015Z,9.73
2023-04-04T20:04:09.671Z,8.00
2023-04-04T20:06:39.853Z,8.13
2023-04-04T20:09:34.763Z,8.40
2023-04-04T20:12:02.700Z,9.87
2023-04-04T20:14:30.085Z,9.77
2023-04-04T20:16:57.237Z,8.57
2023-04-04T20:19:27.469Z,9.43
2023-04-04T20:21:54.770Z,11.13
2023-04-04T20:24:22.101Z,9.73
2023-04-04T20:26:59.604Z,9.10
2023-04-04T20:29:29.753Z,10.93
2023-04-04T20:32:04.734Z,10.77
2023-04-04T20:34:45.340Z,13.27
2023-04-04T20:37:12.501Z,12.70
2023-04-04T20:39:59.218Z,13.73
2023-04-04T20:42:29.125Z,10.13
2023-04-04T20:45:08.499Z,14.53
2023-04-04T20:47:45.678Z,14.47
2023-04-04T20:50:23.668Z,12.77
2023-04-04T20:53:00.197Z,38.70
2023-04-04T20:55:30.082Z,23.50
2023-04-04T20:58:23.745Z,17.07
2023-04-04T21:00:50.943Z,12.93
2023-04-04T21:03:26.814Z,13.20
2023-04-04T21:06:01.178Z,15.17
2023-04-04T21:08:36.464Z,18.67
2023-04-04T21:11:05.203Z,17.37
2023-04-04T21:13:36.729Z,16.63
2023-04-04T21:16:14.418Z,16.77
2023-04-04T21:18:41.750Z,14.23
2023-04-04T21:21:22.255Z,16.47
2023-04-04T21:23:51.081Z,13.37
2023-04-04T21:26:48.395Z,15.20
2023-04-04T21:29:24.513Z,13.33
2023-04-04T21:31:53.852Z,14.87
2023-04-04T21:34:23.371Z,13.93
2023-04-04T21:36:56.003Z,15.03
2023-04-04T21:39:26.479Z,15.77
2023-04-04T21:41:57.916Z,14.80
2023-04-04T21:44:26.398Z,16.10
2023-04-04T21:46:57.100Z,17.83
2023-04-04T21:49:25.170Z,16.10
2023-04-04T21:51:52.420Z,17.00
2023-04-04T21:54:19.671Z,17.50
2023-04-04T21:56:47.134Z,15.37
2023-04-04T21:59:14.388Z,17.93
2023-04-04T22:01:41.678Z,18.27
2023-04-04T22:04:08.955Z,17.93
2023-04-04T22:06:36.369Z,16.97
2023-04-04T22:09:04.212Z,20.93
2023-04-04T22:11:34.308Z,19.70
2023-04-04T22:14:06.637Z,18.80
2023-04-04T22:16:38.851Z,19.17
2023-04-04T22:19:07.481Z,17.67
2023-04-04T22:21:36.611Z,16.63
2023-04-04T22:24:05.716Z,16.70
2023-04-04T22:26:33.640Z,17.00
2023-04-04T22:29:05.159Z,16.37
2023-04-04T22:31:37.371Z,18.07
2023-04-04T22:34:06.168Z,16.53
2023-04-04T22:36:34.357Z,18.33
2023-04-04T22:39:02.708Z,18.80
2023-04-04T22:41:30.384Z,17.23
2023-04-04T22:43:58.149Z,20.27
2023-04-04T22:46:28.311Z,18.27
2023-04-04T22:49:04.414Z,18.03
2023-04-04T22:51:45.477Z,17.80
2023-04-04T22:54:14.883Z,17.10
2023-04-04T22:56:42.216Z,20.30
2023-04-04T22:59:09.630Z,16.53
2023-04-04T23:01:36.849Z,18.67
2023-04-04T23:04:04.219Z,19.97
2023-04-04T23:06:31.557Z,19.50
2023-04-04T23:08:59.164Z,20.20
2023-04-04T23:11:27.185Z,18.07
2023-04-04T23:13:56.696Z,17.73
2023-04-04T23:16:25.908Z,17.00
2023-04-04T23:18:53.078Z,18.87
2023-04-04T23:21:21.678Z,18.80
2023-04-04T23:23:48.835Z,17.73
2023-04-04T23:26:16.165Z,17.80
2023-04-04T23:28:43.375Z,17.30
2023-04-04T23:31:10.949Z,15.90
2023-04-04T23:33:38.182Z,16.43
2023-04-04T23:36:05.840Z,15.97
2023-04-04T23:38:33.019Z,16.00
2023-04-04T23:41:00.181Z,15.43
2023-04-04T23:43:27.519Z,16.77
2023-04-04T23:45:54.806Z,16.20
2023-04-04T23:48:22.151Z,15.40
2023-04-04T23:50:50.178Z,14.53
2023-04-04T23:53:17.582Z,16.73
2023-04-04T23:55:45.031Z,16.07
2023-04-04T23:58:12.181Z,14.97
